Wildwood Camp, Iowa
Current Conditions -  °F | °C
As of 2:52 AM on Sunday 26 Oct 2014 (Local Time) from KDVN Reporting Station
Clear Clear  
Wind Chill: 39°   Ceiling: Unl
Heat Index: 39°   Visibility: 10mi
Dew Point: 32°   Wind: 3mph
Humidity: 76%   Direction: 320°NW
Pressure: 30.05"   Gusts: NA
Location:  41.7317°N, 90.5411°W
Report Text: KDVN 260752Z AUTO 32003KT 10SM CLR 04/00 A3005 RMK AO2 SLP175 T00390000 TSNO
Loading
Personal Weather Stations






























Interactive Weather Map
Tropical Storm Tracking
New forecast layout! Learn more

10-Day Weather Forecast

Advertisements
Track Severe Weather on mobile